ダカール の空港の天気 - METARとTAF

レオポール・セダール・サンゴール国際空港 ( GOOY / DKR ) - セネガル ダカール
飛行場実況気象(Metar)
観測時間06/24 09:00 GMT (06/24 09:00 UTC)
風向・風速北西 5m/s
視程10km以上
天気現象
全天の4割程度の雲 雲底高度 340m
気温25℃
湿度83%
気圧1014hPa
METARGOOY 240900Z 32010KT 9999 SCT011 25/22 Q1014
過去の天気等 Google飛行場航空写真 Wunderground天気予報

過去48時間のMETAR

飛行場予報(TAF)
発表時間: 6/24 05:30 GMT (6/24 05:30 UTC)
予報対象時間: 24日6時 GMT ~ 25日12時 GMT
風向・風速北西 4m/s
視程10km以上
全天の8割程度の雲 雲底高度 300m
24日9時 GMT ~ 24日11時 GMT に徐々に
全天の4割程度の雲 雲底高度 370m
TAF GOOY 240530Z 2406/2512 32008KT 9999 BKN010
BECMG 2409/2411 SCT012